createdAt,value
2019-03-10T00:02:48.289Z,2.30
2019-03-10T00:05:53.020Z,2.47
2019-03-10T00:08:57.468Z,3.23
2019-03-10T00:12:01.918Z,3.23
2019-03-10T00:15:10.666Z,1.67
2019-03-10T00:18:15.120Z,2.90
2019-03-10T00:21:19.851Z,3.03
2019-03-10T00:24:24.299Z,2.83
2019-03-10T00:27:28.745Z,2.80
2019-03-10T00:30:33.180Z,7.27
2019-03-10T00:33:38.057Z,3.73
2019-03-10T00:36:42.507Z,2.70
2019-03-10T00:40:27.785Z,3.90
2019-03-10T00:44:02.866Z,3.43
2019-03-10T00:47:34.461Z,2.43
2019-03-10T00:50:49.344Z,2.97
2019-03-10T00:53:54.060Z,1.27
2019-03-10T00:56:58.642Z,3.17
2019-03-10T01:00:04.449Z,3.37
2019-03-10T01:03:08.899Z,2.43
2019-03-10T01:06:37.527Z,3.80
2019-03-10T01:09:41.962Z,1.93
2019-03-10T01:12:46.407Z,2.73
2019-03-10T01:15:51.875Z,1.60
2019-03-10T01:18:56.749Z,2.50
2019-03-10T01:22:01.935Z,1.53
2019-03-10T01:25:10.193Z,1.97
2019-03-10T01:28:14.622Z,1.67
2019-03-10T01:31:57.592Z,1.53
2019-03-10T01:35:15.641Z,2.00
2019-03-10T01:38:20.370Z,1.70
2019-03-10T01:41:24.805Z,2.07
2019-03-10T01:44:29.252Z,2.17
2019-03-10T01:47:33.956Z,2.13
2019-03-10T01:50:38.682Z,2.13
2019-03-10T01:53:43.128Z,2.03
2019-03-10T01:56:47.935Z,1.93
2019-03-10T01:59:52.670Z,3.30
2019-03-10T02:02:57.101Z,2.33
2019-03-10T02:06:01.541Z,2.13
2019-03-10T02:09:07.259Z,1.80
2019-03-10T02:12:11.997Z,3.03
2019-03-10T02:15:17.180Z,1.00
2019-03-10T02:18:21.869Z,2.47
2019-03-10T02:21:26.699Z,2.23
2019-03-10T02:24:31.142Z,1.23
2019-03-10T02:27:35.612Z,1.37
2019-03-10T02:30:40.027Z,1.43
2019-03-10T02:33:44.470Z,1.53
2019-03-10T02:36:48.910Z,1.97
2019-03-10T02:39:53.357Z,1.07
2019-03-10T02:42:57.811Z,1.90
2019-03-10T02:46:02.241Z,4.17
2019-03-10T02:49:06.926Z,1.70
2019-03-10T02:52:11.370Z,4.70
2019-03-10T02:55:16.076Z,1.03
2019-03-10T02:58:20.545Z,2.93
2019-03-10T03:01:25.336Z,2.63
2019-03-10T03:04:29.774Z,1.83
2019-03-10T03:07:34.485Z,1.33
2019-03-10T03:10:39.323Z,1.50
2019-03-10T03:13:44.045Z,2.77
2019-03-10T03:16:48.476Z,2.17
2019-03-10T03:19:52.917Z,2.40
2019-03-10T03:22:57.362Z,2.40
2019-03-10T03:26:02.049Z,1.57
2019-03-10T03:29:06.781Z,1.80
2019-03-10T03:32:11.215Z,3.40
2019-03-10T03:35:51.687Z,1.60
2019-03-10T03:39:15.033Z,1.77
2019-03-10T03:42:19.468Z,1.07
2019-03-10T03:45:23.901Z,1.73
2019-03-10T03:48:28.348Z,1.03
2019-03-10T03:51:32.783Z,1.27
2019-03-10T03:54:37.234Z,1.07
2019-03-10T03:57:41.675Z,1.33
2019-03-10T04:00:48.052Z,2.03
2019-03-10T04:03:52.786Z,0.50
2019-03-10T04:06:57.221Z,0.43
2019-03-10T04:10:01.667Z,1.07
2019-03-10T04:13:06.363Z,0.90
2019-03-10T04:16:10.800Z,1.40
2019-03-10T04:19:15.524Z,1.60
2019-03-10T04:22:19.953Z,0.93
2019-03-10T04:25:24.405Z,1.43
2019-03-10T04:28:28.829Z,3.23
2019-03-10T04:31:33.519Z,1.93
2019-03-10T04:34:37.958Z,0.90
2019-03-10T04:37:42.381Z,3.60
2019-03-10T04:40:46.811Z,1.50
2019-03-10T04:43:51.241Z,1.90
2019-03-10T04:46:55.673Z,0.70
2019-03-10T04:50:00.157Z,2.47
2019-03-10T04:53:04.716Z,0.53
2019-03-10T04:56:16.493Z,2.10
2019-03-10T04:59:20.937Z,1.03
2019-03-10T05:02:25.358Z,0.70
2019-03-10T05:05:30.062Z,1.70
2019-03-10T05:08:34.515Z,0.37
2019-03-10T05:11:39.002Z,0.50
2019-03-10T05:14:43.441Z,1.33
2019-03-10T05:17:47.875Z,1.03
2019-03-10T05:20:52.304Z,2.00
2019-03-10T05:24:00.540Z,3.37
2019-03-10T05:27:05.054Z,1.10
2019-03-10T05:30:11.293Z,2.40
2019-03-10T05:33:15.715Z,0.87
2019-03-10T05:36:20.436Z,0.73
2019-03-10T05:39:24.938Z,0.57
2019-03-10T05:42:29.379Z,0.63
2019-03-10T05:45:33.814Z,1.90
2019-03-10T05:48:38.543Z,0.77
2019-03-10T05:51:43.279Z,1.27
2019-03-10T05:54:47.718Z,0.73
2019-03-10T05:57:52.144Z,0.63
2019-03-10T06:00:56.849Z,0.93
2019-03-10T06:04:01.278Z,0.50
2019-03-10T06:07:05.779Z,0.80
2019-03-10T06:10:10.283Z,1.90
2019-03-10T06:13:14.712Z,2.47
2019-03-10T06:16:19.153Z,2.63
2019-03-10T06:19:23.643Z,2.13
2019-03-10T06:22:28.324Z,1.13
2019-03-10T06:25:35.057Z,2.42
2019-03-10T06:28:39.206Z,1.13
2019-03-10T06:31:43.636Z,0.77
2019-03-10T06:34:48.064Z,1.83
2019-03-10T06:37:52.498Z,0.97
2019-03-10T06:40:57.229Z,2.07
2019-03-10T06:44:01.654Z,3.40
2019-03-10T06:47:06.380Z,1.53
2019-03-10T06:50:12.524Z,1.03
2019-03-10T06:53:17.062Z,3.43
2019-03-10T06:56:21.495Z,1.00
2019-03-10T06:59:26.221Z,0.40
2019-03-10T07:02:30.664Z,0.50
2019-03-10T07:05:35.082Z,0.80
2019-03-10T07:08:39.518Z,0.60
2019-03-10T07:11:43.962Z,1.37
2019-03-10T07:14:48.397Z,0.90
2019-03-10T07:17:52.830Z,0.40
2019-03-10T07:20:57.947Z,2.90
2019-03-10T07:24:02.507Z,1.53
2019-03-10T07:27:07.270Z,1.20
2019-03-10T07:30:31.333Z,0.40
2019-03-10T07:33:37.402Z,0.90
2019-03-10T07:36:49.237Z,0.73
2019-03-10T07:40:02.146Z,0.70
2019-03-10T07:43:08.376Z,0.63
2019-03-10T07:46:14.454Z,1.70
2019-03-10T07:49:26.232Z,0.73
2019-03-10T07:52:34.981Z,5.07
2019-03-10T07:55:46.509Z,0.70
2019-03-10T07:58:55.237Z,1.63
2019-03-10T08:02:01.417Z,0.70
2019-03-10T08:05:11.815Z,0.70
2019-03-10T08:08:24.028Z,0.73
2019-03-10T08:11:30.703Z,3.60
2019-03-10T08:14:36.774Z,1.30
2019-03-10T08:17:42.862Z,0.33
2019-03-10T08:20:51.835Z,0.43
2019-03-10T08:24:12.876Z,1.97
2019-03-10T08:27:36.812Z,2.17
2019-03-10T08:30:59.502Z,0.87
2019-03-10T08:34:10.073Z,0.80
2019-03-10T08:37:28.528Z,1.33
2019-03-10T08:40:46.821Z,0.53
2019-03-10T08:43:59.017Z,0.60
2019-03-10T08:47:21.632Z,0.70
2019-03-10T08:50:36.895Z,1.50
2019-03-10T08:53:54.878Z,0.50
2019-03-10T08:57:07.161Z,1.10
2019-03-10T09:00:15.233Z,1.43
2019-03-10T09:03:36.673Z,0.20
2019-03-10T09:06:44.637Z,0.47
2019-03-10T09:10:05.325Z,0.23
2019-03-10T09:13:14.316Z,0.60
2019-03-10T09:16:29.503Z,0.40
2019-03-10T09:19:44.807Z,1.73
2019-03-10T09:22:51.160Z,0.53
2019-03-10T09:25:57.525Z,1.10
2019-03-10T09:29:12.617Z,1.37
2019-03-10T09:32:18.696Z,1.20
2019-03-10T09:35:24.765Z,1.77
2019-03-10T09:38:36.278Z,3.67
2019-03-10T09:41:51.317Z,1.63
2019-03-10T09:44:57.409Z,1.33
2019-03-10T09:48:06.271Z,1.20
2019-03-10T09:51:23.911Z,2.60
2019-03-10T09:54:45.857Z,0.83
2019-03-10T09:58:08.316Z,1.20
2019-03-10T10:01:23.362Z,1.00
2019-03-10T10:04:29.740Z,0.70
2019-03-10T10:07:34.258Z,0.83
2019-03-10T10:10:46.276Z,0.93
2019-03-10T10:14:03.953Z,1.70
2019-03-10T10:17:10.030Z,1.03
2019-03-10T10:20:26.821Z,0.90
2019-03-10T10:23:43.885Z,1.50
2019-03-10T10:26:52.609Z,0.93
2019-03-10T10:29:58.693Z,1.03
2019-03-10T10:33:11.894Z,2.43
2019-03-10T10:36:26.720Z,4.80
2019-03-10T10:39:33.146Z,0.20
2019-03-10T10:42:54.923Z,0.23
2019-03-10T10:46:03.451Z,1.17
2019-03-10T10:49:21.634Z,1.27
2019-03-10T10:52:28.111Z,0.93
2019-03-10T10:55:34.479Z,0.30
2019-03-10T10:58:43.298Z,0.20
2019-03-10T11:01:54.824Z,0.20
2019-03-10T11:05:10.995Z,0.40
2019-03-10T11:08:17.068Z,0.10
2019-03-10T11:11:38.077Z,0.20
2019-03-10T11:15:00.714Z,0.07
2019-03-10T11:18:09.961Z,0.23
2019-03-10T11:21:14.197Z,0.10
2019-03-10T11:24:20.643Z,0.20
2019-03-10T11:27:26.720Z,0.20
2019-03-10T11:30:35.467Z,0.20
2019-03-10T11:33:45.716Z,0.20
2019-03-10T11:36:54.842Z,0.10
2019-03-10T11:39:59.053Z,0.30
2019-03-10T11:43:14.173Z,0.13
2019-03-10T11:46:33.295Z,0.97
2019-03-10T11:49:51.051Z,1.27
2019-03-10T11:52:59.785Z,0.60
2019-03-10T11:56:23.893Z,0.40
2019-03-10T11:59:32.729Z,0.10
2019-03-10T12:02:50.805Z,0.30
2019-03-10T12:05:56.891Z,0.00
2019-03-10T12:09:08.392Z,0.50
2019-03-10T12:12:12.906Z,1.03
2019-03-10T12:15:17.616Z,0.53
2019-03-10T12:18:22.341Z,0.57
2019-03-10T12:21:26.784Z,1.43
2019-03-10T12:24:31.494Z,1.50
2019-03-10T12:27:36.223Z,0.37
2019-03-10T12:30:40.674Z,0.10
2019-03-10T12:33:45.120Z,0.20
2019-03-10T12:36:49.685Z,0.20
2019-03-10T12:39:54.636Z,0.20
2019-03-10T12:42:59.068Z,2.27
2019-03-10T12:46:03.812Z,1.87
2019-03-10T12:49:08.248Z,2.03
2019-03-10T12:52:12.682Z,0.60
2019-03-10T12:55:17.370Z,0.20
2019-03-10T12:58:21.804Z,0.30
2019-03-10T13:01:26.322Z,0.33
2019-03-10T13:04:30.760Z,0.20
2019-03-10T13:07:35.198Z,2.00
2019-03-10T13:10:39.639Z,0.60
2019-03-10T13:13:44.316Z,0.40
2019-03-10T13:16:49.053Z,3.70
2019-03-10T13:19:53.488Z,2.20
2019-03-10T13:22:58.208Z,4.20
2019-03-10T13:26:02.640Z,1.13
2019-03-10T13:29:07.076Z,2.70
2019-03-10T13:32:11.883Z,2.43
2019-03-10T13:35:16.386Z,2.20
2019-03-10T13:38:20.831Z,3.33
2019-03-10T13:41:25.273Z,1.67
2019-03-10T13:44:29.984Z,1.50
2019-03-10T13:47:34.719Z,2.77
2019-03-10T13:50:39.450Z,1.90
2019-03-10T13:53:43.897Z,5.17
2019-03-10T13:56:48.342Z,1.30
2019-03-10T13:59:53.033Z,3.30
2019-03-10T14:02:57.557Z,5.03
2019-03-10T14:06:01.994Z,2.60
2019-03-10T14:09:08.812Z,3.30
2019-03-10T14:12:13.329Z,3.07
2019-03-10T14:15:18.422Z,3.47
2019-03-10T14:18:22.878Z,1.87
2019-03-10T14:21:27.305Z,3.73
2019-03-10T14:24:31.756Z,2.13
2019-03-10T14:27:36.195Z,2.10
2019-03-10T14:30:40.950Z,6.03
2019-03-10T14:33:45.392Z,2.63
2019-03-10T14:36:49.822Z,2.57
2019-03-10T14:39:54.272Z,3.97
2019-03-10T14:42:58.711Z,3.97
2019-03-10T14:46:03.420Z,3.03
2019-03-10T14:49:08.106Z,3.77
2019-03-10T14:52:12.838Z,5.60
2019-03-10T14:55:19.373Z,3.33
2019-03-10T14:58:23.818Z,6.07
2019-03-10T15:01:28.251Z,7.30
2019-03-10T15:04:32.696Z,3.27
2019-03-10T15:07:37.411Z,3.10
2019-03-10T15:10:41.842Z,6.10
2019-03-10T15:13:46.284Z,6.67
2019-03-10T15:16:50.723Z,3.77
2019-03-10T15:19:55.164Z,9.47
2019-03-10T15:22:59.606Z,4.67
2019-03-10T15:26:04.044Z,4.23
2019-03-10T15:29:08.487Z,6.33
2019-03-10T15:32:13.207Z,6.03
2019-03-10T15:35:17.652Z,7.37
2019-03-10T15:38:22.095Z,5.77
2019-03-10T15:41:26.537Z,9.83
2019-03-10T15:44:30.973Z,12.03
2019-03-10T15:47:35.411Z,7.27
2019-03-10T15:50:41.729Z,10.97
2019-03-10T15:53:46.171Z,12.00
2019-03-10T15:56:50.606Z,8.67
2019-03-10T15:59:55.371Z,8.00
2019-03-10T16:02:59.808Z,10.43
2019-03-10T16:06:04.252Z,9.60
2019-03-10T16:09:09.160Z,10.30
2019-03-10T16:12:13.591Z,6.10
2019-03-10T16:15:26.406Z,10.10
2019-03-10T16:18:30.848Z,5.87
2019-03-10T16:21:35.282Z,7.77
2019-03-10T16:24:39.974Z,5.57
2019-03-10T16:27:44.402Z,7.53
2019-03-10T16:30:48.849Z,10.27
2019-03-10T16:33:53.558Z,12.40
2019-03-10T16:36:57.988Z,8.60
2019-03-10T16:40:03.015Z,9.60
2019-03-10T16:43:07.447Z,6.93
2019-03-10T16:46:12.175Z,4.90
2019-03-10T16:49:16.610Z,8.47
2019-03-10T16:52:21.048Z,7.10
2019-03-10T16:55:25.496Z,6.37
2019-03-10T16:58:30.011Z,8.13
2019-03-10T17:01:34.456Z,6.63
2019-03-10T17:04:38.907Z,5.10
2019-03-10T17:07:43.340Z,6.73
2019-03-10T17:10:47.783Z,6.67
2019-03-10T17:13:52.494Z,9.07
2019-03-10T17:16:57.233Z,6.60
2019-03-10T17:20:01.959Z,7.57
2019-03-10T17:23:06.394Z,5.87
2019-03-10T17:26:10.834Z,4.77
2019-03-10T17:29:15.537Z,4.10
2019-03-10T17:32:20.265Z,4.33
2019-03-10T17:35:25.109Z,6.37
2019-03-10T17:38:29.547Z,4.20
2019-03-10T17:41:34.010Z,10.07
2019-03-10T17:44:41.460Z,9.53
2019-03-10T17:47:44.674Z,10.40
2019-03-10T17:50:49.117Z,7.30
2019-03-10T17:53:53.805Z,6.90
2019-03-10T17:56:58.229Z,6.93
2019-03-10T18:00:02.740Z,9.13
2019-03-10T18:03:07.183Z,5.60
2019-03-10T18:06:11.624Z,9.07
2019-03-10T18:09:16.055Z,4.63
2019-03-10T18:12:20.498Z,3.70
2019-03-10T18:15:24.942Z,6.73
2019-03-10T18:18:29.378Z,6.00
2019-03-10T18:21:33.866Z,5.07
2019-03-10T18:24:38.540Z,7.43
2019-03-10T18:27:42.992Z,7.87
2019-03-10T18:30:49.635Z,7.37
2019-03-10T18:33:54.065Z,6.40
2019-03-10T18:36:58.545Z,8.13
2019-03-10T18:40:03.459Z,8.13
2019-03-10T18:43:08.145Z,7.70
2019-03-10T18:46:12.582Z,4.50
2019-03-10T18:49:17.001Z,7.70
2019-03-10T18:52:21.445Z,10.03
2019-03-10T18:55:25.879Z,6.33
2019-03-10T18:58:30.297Z,10.50
2019-03-10T19:01:34.741Z,5.47
2019-03-10T19:04:39.153Z,6.73
2019-03-10T19:07:43.586Z,6.40
2019-03-10T19:10:48.369Z,5.40
2019-03-10T19:13:53.107Z,11.53
2019-03-10T19:16:57.832Z,6.80
2019-03-10T19:20:02.559Z,5.03
2019-03-10T19:23:07.296Z,6.17
2019-03-10T19:26:12.038Z,7.83
2019-03-10T19:29:16.479Z,7.83
2019-03-10T19:32:21.180Z,7.50
2019-03-10T19:35:25.619Z,5.97
2019-03-10T19:38:30.367Z,6.33
2019-03-10T19:41:35.065Z,6.03
2019-03-10T19:44:39.489Z,6.20
2019-03-10T19:47:43.918Z,6.50
2019-03-10T19:50:48.355Z,5.17
2019-03-10T19:53:52.792Z,6.83
2019-03-10T19:56:57.246Z,4.40
2019-03-10T20:00:01.920Z,4.47
2019-03-10T20:03:06.422Z,3.60
2019-03-10T20:06:11.169Z,7.57
2019-03-10T20:09:15.605Z,8.30
2019-03-10T20:12:20.113Z,5.00
2019-03-10T20:15:27.914Z,7.30
2019-03-10T20:18:32.378Z,6.23
2019-03-10T20:21:36.820Z,9.07
2019-03-10T20:24:41.246Z,6.10
2019-03-10T20:27:46.130Z,7.57
2019-03-10T20:30:50.859Z,8.00
2019-03-10T20:33:55.302Z,9.90
2019-03-10T20:36:59.741Z,9.57
2019-03-10T20:40:07.638Z,8.00
2019-03-10T20:43:12.074Z,6.27
2019-03-10T20:46:16.765Z,11.63
2019-03-10T20:49:21.194Z,7.80
2019-03-10T20:52:25.635Z,8.83
2019-03-10T20:55:30.058Z,9.30
2019-03-10T20:58:35.088Z,11.53
2019-03-10T21:01:39.668Z,8.13
2019-03-10T21:04:44.109Z,10.07
2019-03-10T21:07:48.585Z,10.50
2019-03-10T21:10:53.001Z,7.43
2019-03-10T21:13:57.514Z,9.10
2019-03-10T21:17:02.227Z,9.37
2019-03-10T21:20:11.771Z,10.50
2019-03-10T21:23:16.502Z,8.33
2019-03-10T21:26:20.944Z,8.50
2019-03-10T21:29:25.398Z,7.83
2019-03-10T21:32:29.827Z,7.53
2019-03-10T21:35:34.256Z,7.63
2019-03-10T21:38:38.747Z,6.37
2019-03-10T21:41:43.188Z,10.60
2019-03-10T21:44:47.636Z,6.90
2019-03-10T21:47:52.119Z,9.53
2019-03-10T21:50:56.527Z,10.17
2019-03-10T21:54:00.960Z,8.10
2019-03-10T21:57:05.385Z,8.53
2019-03-10T22:00:16.650Z,9.93
2019-03-10T22:03:21.087Z,9.17
2019-03-10T22:06:25.806Z,11.00
2019-03-10T22:09:30.234Z,7.53
2019-03-10T22:12:34.959Z,8.53
2019-03-10T22:15:41.982Z,10.63
2019-03-10T22:18:46.163Z,11.27
2019-03-10T22:21:50.892Z,8.93
2019-03-10T22:24:55.621Z,8.57
2019-03-10T22:28:00.059Z,14.33
2019-03-10T22:31:04.495Z,10.67
2019-03-10T22:34:09.196Z,7.90
2019-03-10T22:37:13.652Z,9.17
2019-03-10T22:40:21.301Z,12.93
2019-03-10T22:43:26.055Z,12.63
2019-03-10T22:46:30.485Z,12.87
2019-03-10T22:49:34.922Z,9.97
2019-03-10T22:52:39.630Z,10.10
2019-03-10T22:55:44.069Z,7.17
2019-03-10T22:58:48.508Z,10.63
2019-03-10T23:01:53.212Z,12.90
2019-03-10T23:04:57.648Z,12.30
2019-03-10T23:08:02.368Z,10.60
2019-03-10T23:11:08.524Z,14.50
2019-03-10T23:14:12.968Z,11.70
2019-03-10T23:17:17.401Z,11.87
2019-03-10T23:20:22.928Z,11.87
2019-03-10T23:23:27.364Z,17.17
2019-03-10T23:26:31.794Z,15.47
2019-03-10T23:29:36.229Z,11.23
2019-03-10T23:32:40.653Z,10.03
2019-03-10T23:35:45.088Z,11.63
2019-03-10T23:38:49.517Z,8.60
2019-03-10T23:41:53.947Z,14.40
2019-03-10T23:44:58.723Z,9.97
2019-03-10T23:48:03.156Z,7.63
2019-03-10T23:51:07.592Z,9.53
2019-03-10T23:54:12.026Z,15.10
2019-03-10T23:57:16.452Z,11.77
